Time;durP1;ratioP1;P1;durP2;ratioP2;P2;SDS_P1;SDS_P2;PMS_P1;PMS_P2;Temp;Humidity;BMP_temperature;BMP_pressure;BME280_temperature;BME280_humidity;BME280_pressure;Samples;Min_cycle;Max_cycle;Signal;HPM_P1;HPM_P2
2022/06/21 00:00:05;;;;;;;2.20;1.70;;;16.00;99.90;;;;;;5076332;28;20203;-79
2022/06/21 00:02:33;;;;;;;3.30;1.57;;;15.90;99.90;;;;;;5075140;28;20247;-77
2022/06/21 00:05:02;;;;;;;2.90;1.93;;;15.80;99.90;;;;;;5091798;28;20204;-76
2022/06/21 00:07:31;;;;;;;3.33;1.60;;;15.90;99.90;;;;;;5096270;28;20222;-78
2022/06/21 00:10:01;;;;;;;2.97;1.63;;;15.80;99.90;;;;;;5088549;28;20215;-78
2022/06/21 00:12:29;;;;;;;1.70;1.60;;;15.80;99.90;;;;;;5088250;28;20211;-74
2022/06/21 00:14:58;;;;;;;3.07;1.50;;;15.70;99.90;;;;;;5100739;28;20206;-76
2022/06/21 00:17:26;;;;;;;2.67;1.60;;;15.70;99.90;;;;;;5092435;28;20203;-75
2022/06/21 00:19:54;;;;;;;2.60;1.60;;;15.70;99.90;;;;;;5077731;28;20661;-76
2022/06/21 00:22:22;;;;;;;1.77;1.60;;;15.60;99.90;;;;;;5075694;28;20310;-75
2022/06/21 00:24:52;;;;;;;2.07;1.40;;;15.60;99.90;;;;;;5082444;28;20283;-79
2022/06/21 00:27:22;;;;;;;2.30;1.30;;;15.50;99.90;;;;;;5083217;28;20231;-78
2022/06/21 00:29:50;;;;;;;2.87;1.50;;;15.50;99.90;;;;;;5082831;28;20240;-76
2022/06/21 00:32:21;;;;;;;4.33;1.60;;;15.50;99.90;;;;;;5085777;28;20255;-76
2022/06/21 00:34:50;;;;;;;2.50;1.50;;;15.40;99.90;;;;;;5076385;28;20199;-79
2022/06/21 00:37:21;;;;;;;4.33;1.37;;;15.50;99.90;;;;;;5085577;28;20231;-76
2022/06/21 00:39:51;;;;;;;2.53;1.50;;;15.50;99.90;;;;;;5081682;28;20235;-78
2022/06/21 00:42:27;;;;;;;1.30;1.20;;;15.40;99.90;;;;;;5081504;28;20227;-78
2022/06/21 00:45:03;;;;;;;2.10;1.50;;;15.30;99.90;;;;;;5074720;28;20334;-74
2022/06/21 00:47:36;;;;;;;3.53;1.40;;;15.30;99.90;;;;;;5077774;28;20223;-76
2022/06/21 00:50:13;;;;;;;1.83;1.33;;;15.30;99.90;;;;;;5076344;28;20208;-77
2022/06/21 00:52:47;;;;;;;3.43;1.40;;;15.20;99.90;;;;;;5077190;28;20249;-76
2022/06/21 00:55:20;;;;;;;2.37;1.10;;;15.20;99.90;;;;;;5074838;28;20329;-77
2022/06/21 00:57:55;;;;;;;2.07;1.30;;;15.10;99.90;;;;;;5074573;28;20783;-78
2022/06/21 01:00:27;;;;;;;1.63;1.40;;;15.10;99.90;;;;;;5074553;28;20199;-79
2022/06/21 01:02:57;;;;;;;2.43;1.53;;;15.00;99.90;;;;;;5086573;28;20320;-79
2022/06/21 01:05:29;;;;;;;2.33;1.27;;;15.00;99.90;;;;;;5081771;28;20234;-78
2022/06/21 01:07:59;;;;;;;1.63;1.30;;;15.00;99.90;;;;;;5082428;28;20199;-76
2022/06/21 01:10:28;;;;;;;1.30;1.20;;;14.90;99.90;;;;;;5067220;28;20234;-78
2022/06/21 01:13:01;;;;;;;2.93;1.43;;;14.90;99.90;;;;;;5077369;28;20291;-77
2022/06/21 01:15:43;;;;;;;2.73;1.50;;;14.90;99.90;;;;;;5074295;28;20199;-78
2022/06/21 01:18:15;;;;;;;2.73;1.27;;;14.90;99.90;;;;;;5078389;28;20206;-75
2022/06/21 01:20:46;;;;;;;2.63;1.37;;;14.70;99.90;;;;;;5078163;28;20295;-78
2022/06/21 01:23:24;;;;;;;1.60;1.20;;;14.60;99.90;;;;;;5077856;28;20223;-78
2022/06/21 01:26:01;;;;;;;3.63;1.10;;;14.50;99.90;;;;;;5057121;28;20239;-76
2022/06/21 01:28:31;;;;;;;1.80;1.10;;;14.40;99.90;;;;;;5079138;28;20712;-77
2022/06/21 01:31:00;;;;;;;2.37;1.10;;;14.40;99.90;;;;;;5075391;28;20693;-79
2022/06/21 01:33:32;;;;;;;1.20;1.07;;;14.30;99.90;;;;;;5075504;28;20219;-78
2022/06/21 01:36:04;;;;;;;2.77;1.20;;;14.30;99.90;;;;;;5074673;28;20626;-82
2022/06/21 01:38:38;;;;;;;1.30;1.20;;;14.20;99.90;;;;;;5063759;28;20207;-79
2022/06/21 01:41:16;;;;;;;2.97;1.30;;;14.20;99.90;;;;;;5073753;28;20322;-79
2022/06/21 01:43:49;;;;;;;2.13;1.20;;;14.20;99.90;;;;;;5076818;28;20267;-77
2022/06/21 01:46:20;;;;;;;2.03;1.10;;;14.10;99.90;;;;;;5075379;28;20274;-78
2022/06/21 01:48:51;;;;;;;1.17;1.07;;;14.10;99.90;;;;;;5076699;28;20227;-77
2022/06/21 01:51:26;;;;;;;2.37;1.10;;;14.00;99.90;;;;;;5086406;28;20692;-76
2022/06/21 01:53:56;;;;;;;1.20;1.10;;;13.90;99.90;;;;;;5081441;28;20207;-75
2022/06/21 01:56:26;;;;;;;3.80;1.43;;;13.70;99.90;;;;;;5084404;28;20246;-77
2022/06/21 01:59:02;;;;;;;1.70;1.20;;;13.70;99.90;;;;;;5078783;28;20235;-76
2022/06/21 02:01:36;;;;;;;2.27;1.30;;;13.60;99.90;;;;;;5074591;28;20199;-77
2022/06/21 02:04:06;;;;;;;2.13;1.40;;;13.60;99.90;;;;;;5078297;28;20269;-77
2022/06/21 02:06:41;;;;;;;2.17;1.27;;;13.40;99.90;;;;;;5080083;28;20207;-79
2022/06/21 02:09:16;;;;;;;3.17;1.40;;;13.40;99.90;;;;;;5077130;28;20298;-79
2022/06/21 02:11:48;;;;;;;2.07;1.23;;;13.30;99.90;;;;;;5076527;28;20304;-74
2022/06/21 02:14:29;;;;;;;2.30;1.40;;;13.30;99.90;;;;;;5074583;28;20211;-79
2022/06/21 02:17:09;;;;;;;2.83;1.30;;;13.20;99.90;;;;;;5069975;28;20574;-79
2022/06/21 02:19:41;;;;;;;1.97;1.27;;;13.10;99.90;;;;;;5075172;28;20294;-78
2022/06/21 02:22:15;;;;;;;1.40;1.30;;;13.10;99.90;;;;;;5073392;28;20207;-79
2022/06/21 02:24:44;;;;;;;1.20;1.10;;;13.00;99.90;;;;;;5072194;28;20207;-79
2022/06/21 02:27:15;;;;;;;1.60;1.30;;;13.00;99.90;;;;;;5069026;28;20208;-76
2022/06/21 02:29:49;;;;;;;1.80;1.40;;;13.00;99.90;;;;;;5074870;28;20203;-80
2022/06/21 02:32:23;;;;;;;2.40;1.20;;;12.90;99.90;;;;;;5075588;28;20649;-79
2022/06/21 02:34:57;;;;;;;2.77;1.40;;;12.80;99.90;;;;;;5075111;28;20609;-80
2022/06/21 02:37:28;;;;;;;2.00;1.30;;;12.80;99.90;;;;;;5074291;28;20204;-81
2022/06/21 02:39:57;;;;;;;1.40;1.30;;;12.80;99.90;;;;;;5079382;28;20668;-78
2022/06/21 02:42:30;;;;;;;1.80;1.40;;;12.80;99.90;;;;;;5083573;28;20243;-78
2022/06/21 02:45:07;;;;;;;2.10;1.30;;;12.80;99.90;;;;;;5074092;28;20215;-78
2022/06/21 02:47:40;;;;;;;2.23;1.23;;;12.80;99.90;;;;;;5080153;28;20227;-77
2022/06/21 02:50:23;;;;;;;5.40;1.50;;;12.70;99.90;;;;;;5063064;28;20287;-80
2022/06/21 02:52:53;;;;;;;1.70;1.40;;;12.60;99.90;;;;;;5063980;28;20289;-76
2022/06/21 02:55:34;;;;;;;2.70;1.40;;;12.60;99.90;;;;;;5063894;28;20204;-80
2022/06/21 02:58:07;;;;;;;2.93;1.43;;;12.60;99.90;;;;;;5068388;28;20256;-80
2022/06/21 03:00:37;;;;;;;2.27;1.43;;;12.50;99.90;;;;;;5067501;28;20765;-79
2022/06/21 03:03:08;;;;;;;2.67;1.47;;;12.50;99.90;;;;;;5068514;28;20565;-81
2022/06/21 03:05:36;;;;;;;1.83;1.37;;;12.40;99.90;;;;;;5062594;28;20661;-77
2022/06/21 03:08:07;;;;;;;2.07;1.27;;;12.40;99.90;;;;;;5071050;28;20290;-78
2022/06/21 03:10:39;;;;;;;3.87;1.43;;;12.30;99.90;;;;;;5069869;28;20744;-78
2022/06/21 03:13:11;;;;;;;2.30;1.50;;;12.30;99.90;;;;;;5082680;28;20566;-78
2022/06/21 03:15:44;;;;;;;4.20;1.50;;;12.30;99.90;;;;;;5073556;28;20252;-78
2022/06/21 03:18:16;;;;;;;4.23;1.57;;;12.30;99.90;;;;;;5078215;28;20609;-80
2022/06/21 03:20:45;;;;;;;1.93;1.60;;;12.30;99.90;;;;;;5077680;28;20239;-78
2022/06/21 03:23:15;;;;;;;2.63;1.40;;;12.30;99.90;;;;;;5083293;28;20314;-78
2022/06/21 03:25:47;;;;;;;2.73;1.97;;;12.30;99.90;;;;;;5073203;28;20295;-79
2022/06/21 03:28:25;;;;;;;1.87;1.37;;;12.40;99.90;;;;;;5073481;28;20629;-79
2022/06/21 03:31:08;;;;;;;2.80;1.60;;;12.40;99.90;;;;;;5066920;28;20234;-79
2022/06/21 03:33:40;;;;;;;3.40;1.63;;;12.40;99.90;;;;;;5078331;28;20276;-81
2022/06/21 03:36:12;;;;;;;3.43;2.00;;;12.50;99.90;;;;;;5081978;28;20204;-78
2022/06/21 03:38:44;;;;;;;2.60;1.60;;;12.60;99.90;;;;;;5080072;28;20239;-81
2022/06/21 03:44:04;;;;;;;2.53;1.40;;;12.80;99.90;;;;;;5079991;28;20265;-81
2022/06/21 03:46:40;;;;;;;3.50;1.40;;;12.80;99.90;;;;;;5080638;28;20211;-75
2022/06/21 03:49:15;;;;;;;2.97;1.50;;;13.00;99.90;;;;;;5075346;28;20210;-77
2022/06/21 03:51:47;;;;;;;3.63;1.30;;;13.10;99.90;;;;;;5065184;28;20613;-78
2022/06/21 03:54:21;;;;;;;2.00;1.20;;;13.20;99.90;;;;;;5072342;28;20232;-77
2022/06/21 03:56:54;;;;;;;2.97;1.40;;;13.30;99.90;;;;;;5072976;28;20239;-79
2022/06/21 03:59:30;;;;;;;2.27;1.40;;;13.40;99.90;;;;;;5071339;28;20239;-80
2022/06/21 04:02:05;;;;;;;3.47;1.43;;;13.40;99.90;;;;;;5072694;28;20245;-79
2022/06/21 04:04:38;;;;;;;1.67;1.20;;;13.50;99.90;;;;;;5070999;28;20207;-80
2022/06/21 04:07:15;;;;;;;4.90;1.80;;;13.50;99.90;;;;;;5076403;28;20230;-79
2022/06/21 04:09:51;;;;;;;2.50;1.60;;;13.50;99.90;;;;;;5077340;28;20278;-79
2022/06/21 04:12:24;;;;;;;1.83;1.73;;;13.60;99.90;;;;;;5072785;28;20555;-77
2022/06/21 04:14:57;;;;;;;3.23;1.30;;;14.00;99.90;;;;;;5081766;28;20617;-77
2022/06/21 04:17:35;;;;;;;2.57;1.30;;;14.40;99.90;;;;;;5075491;28;20210;-80
2022/06/21 04:20:10;;;;;;;2.23;1.63;;;14.40;99.90;;;;;;5078962;28;20286;-80
2022/06/21 04:22:44;;;;;;;1.27;1.17;;;14.80;99.90;;;;;;5070568;28;20607;-79
2022/06/21 04:25:20;;;;;;;4.90;1.80;;;14.60;99.90;;;;;;5077491;28;20258;-80
2022/06/21 04:27:53;;;;;;;2.30;1.40;;;14.60;99.90;;;;;;5080541;28;20243;-79
2022/06/21 04:30:27;;;;;;;2.07;1.30;;;14.50;99.90;;;;;;5075984;28;20290;-78
2022/06/21 04:33:04;;;;;;;2.00;1.63;;;14.40;99.90;;;;;;5075592;28;20238;-76
2022/06/21 04:35:36;;;;;;;3.27;1.50;;;14.40;99.90;;;;;;5074372;28;20295;-79
2022/06/21 04:38:09;;;;;;;1.37;1.30;;;14.30;99.90;;;;;;5069642;28;20207;-76
2022/06/21 04:40:41;;;;;;;1.97;1.33;;;14.40;99.90;;;;;;5076647;28;20627;-79
2022/06/21 04:43:14;;;;;;;3.00;1.73;;;14.40;99.90;;;;;;5073676;28;20238;-80
2022/06/21 04:45:48;;;;;;;2.20;1.60;;;14.40;99.90;;;;;;5071292;28;20698;-79
2022/06/21 04:48:28;;;;;;;2.27;1.37;;;14.40;99.90;;;;;;5069552;28;20234;-79
2022/06/21 04:51:01;;;;;;;3.20;1.37;;;14.40;99.90;;;;;;5068034;28;20204;-78
2022/06/21 04:53:39;;;;;;;2.30;1.50;;;14.50;99.90;;;;;;5069449;28;20204;-77
2022/06/21 04:56:21;;;;;;;2.07;1.23;;;14.60;99.90;;;;;;5069558;28;20273;-78
2022/06/21 04:58:51;;;;;;;2.77;1.40;;;14.70;99.90;;;;;;5071554;28;20223;-76
2022/06/21 05:01:33;;;;;;;4.03;1.57;;;14.80;99.90;;;;;;5077028;28;20790;-80
2022/06/21 05:04:08;;;;;;;2.17;1.50;;;14.90;99.90;;;;;;5077198;28;20640;-78
2022/06/21 05:06:38;;;;;;;3.30;1.67;;;15.00;99.90;;;;;;5075818;28;20264;-76
2022/06/21 05:09:07;;;;;;;2.57;1.40;;;15.10;99.90;;;;;;5078104;28;20215;-78
2022/06/21 05:11:35;;;;;;;3.73;1.60;;;15.10;99.90;;;;;;5074512;28;20238;-78
2022/06/21 05:14:03;;;;;;;3.43;1.77;;;15.20;99.90;;;;;;5078382;28;20207;-78
2022/06/21 05:16:36;;;;;;;4.03;1.60;;;15.30;99.90;;;;;;5080860;28;20214;-79
2022/06/21 05:19:19;;;;;;;2.43;1.50;;;15.30;99.90;;;;;;5076994;28;20219;-78
2022/06/21 05:21:53;;;;;;;4.20;1.43;;;15.30;99.90;;;;;;5077456;28;20231;-77
2022/06/21 05:24:22;;;;;;;3.00;1.50;;;15.40;99.90;;;;;;5080125;28;20666;-79
2022/06/21 05:27:00;;;;;;;2.33;1.50;;;15.60;99.90;;;;;;5080923;28;20242;-77
2022/06/21 05:29:33;;;;;;;3.57;1.57;;;15.70;99.90;;;;;;5076958;28;20215;-77
2022/06/21 05:32:10;;;;;;;2.07;1.40;;;15.80;99.90;;;;;;5076969;28;20207;-78
2022/06/21 05:34:44;;;;;;;4.37;1.40;;;15.80;99.90;;;;;;5077472;28;20298;-80
2022/06/21 05:37:25;;;;;;;3.13;1.50;;;15.90;99.90;;;;;;5077833;28;20211;-77
2022/06/21 05:39:55;;;;;;;2.97;1.50;;;16.00;99.90;;;;;;5074609;28;20199;-80
2022/06/21 05:42:29;;;;;;;2.77;1.70;;;16.10;99.90;;;;;;5075354;28;20298;-78
2022/06/21 05:45:05;;;;;;;2.83;1.60;;;16.00;99.90;;;;;;5074501;28;20319;-79
2022/06/21 05:47:38;;;;;;;3.27;1.60;;;16.20;99.90;;;;;;5079575;28;20202;-80
2022/06/21 05:50:12;;;;;;;2.33;1.50;;;16.10;99.90;;;;;;5080543;28;20298;-78
2022/06/21 05:52:46;;;;;;;3.57;1.70;;;16.20;99.90;;;;;;5084595;28;20272;-76
2022/06/21 05:55:17;;;;;;;4.43;1.63;;;16.20;99.90;;;;;;5073418;28;20593;-77
2022/06/21 05:57:50;;;;;;;3.60;1.70;;;16.30;99.90;;;;;;5079077;28;20669;-79
2022/06/21 06:00:25;;;;;;;2.77;1.60;;;16.40;99.90;;;;;;5078386;28;20246;-77
2022/06/21 06:02:57;;;;;;;4.60;1.70;;;16.50;99.90;;;;;;5080748;28;20264;-78
2022/06/21 06:05:31;;;;;;;3.27;1.50;;;16.60;99.90;;;;;;5077480;28;20223;-80
2022/06/21 06:08:03;;;;;;;4.60;1.67;;;16.90;99.90;;;;;;5078934;28;20253;-79
2022/06/21 06:10:32;;;;;;;3.87;1.60;;;17.00;99.90;;;;;;5076478;28;20235;-79
2022/06/21 06:13:05;;;;;;;3.07;1.60;;;17.30;99.90;;;;;;5076932;28;20204;-77
2022/06/21 06:15:38;;;;;;;3.93;1.67;;;17.50;99.90;;;;;;5075699;28;20215;-76
2022/06/21 06:18:14;;;;;;;3.97;1.67;;;17.80;99.90;;;;;;5075018;28;20269;-80
2022/06/21 06:20:50;;;;;;;6.20;1.77;;;18.00;99.90;;;;;;5073066;28;20235;-79
2022/06/21 06:23:24;;;;;;;3.03;1.43;;;17.90;99.90;;;;;;5085368;28;20214;-78
2022/06/21 06:25:57;;;;;;;2.23;1.40;;;18.10;99.90;;;;;;5076391;28;20411;-78
2022/06/21 06:28:32;;;;;;;5.53;1.67;;;18.00;99.90;;;;;;5072000;28;20235;-76
2022/06/21 06:31:05;;;;;;;7.43;1.90;;;18.10;99.90;;;;;;5062824;28;20269;-78
2022/06/21 06:33:38;;;;;;;4.07;1.57;;;18.00;99.90;;;;;;5075270;28;20734;-77
2022/06/21 06:36:15;;;;;;;3.47;1.60;;;18.10;99.90;;;;;;5073949;28;20195;-78
2022/06/21 06:38:44;;;;;;;3.23;1.67;;;18.00;99.90;;;;;;5081803;28;20203;-75
2022/06/21 06:41:26;;;;;;;6.43;1.83;;;17.90;99.90;;;;;;5083272;28;20207;-80
2022/06/21 06:43:57;;;;;;;4.07;1.80;;;17.90;99.90;;;;;;5079269;28;20238;-78
2022/06/21 06:46:30;;;;;;;4.23;1.70;;;18.00;99.90;;;;;;5078837;28;20619;-77
2022/06/21 06:49:13;;;;;;;2.90;1.70;;;18.10;99.90;;;;;;5080106;28;20355;-78
2022/06/21 06:51:48;;;;;;;4.30;1.83;;;18.30;99.90;;;;;;5071778;28;20773;-76
2022/06/21 06:54:24;;;;;;;5.13;1.73;;;18.30;99.90;;;;;;5080239;28;20294;-77
2022/06/21 06:57:02;;;;;;;3.43;1.53;;;18.20;99.90;;;;;;5076048;28;20242;-77
2022/06/21 06:59:30;;;;;;;3.70;1.70;;;18.10;99.90;;;;;;5077732;28;20268;-76
2022/06/21 07:02:02;;;;;;;2.63;1.50;;;18.20;99.90;;;;;;5074939;28;20661;-77
2022/06/21 07:04:36;;;;;;;3.63;1.60;;;18.60;99.90;;;;;;5075687;28;20313;-75
2022/06/21 07:07:15;;;;;;;4.63;1.60;;;18.90;99.90;;;;;;5073953;28;20664;-80
2022/06/21 07:09:48;;;;;;;3.97;1.50;;;19.30;99.90;;;;;;5073688;28;20290;-76
2022/06/21 07:12:19;;;;;;;4.23;1.63;;;19.60;99.30;;;;;;5073025;28;20234;-76
2022/06/21 07:14:50;;;;;;;4.30;1.60;;;19.50;98.90;;;;;;5081210;28;20210;-77
2022/06/21 07:17:23;;;;;;;3.47;1.70;;;19.70;99.60;;;;;;5078488;28;20249;-78
2022/06/21 07:19:53;;;;;;;2.53;1.50;;;19.40;98.20;;;;;;5082403;28;20242;-77
2022/06/21 07:22:25;;;;;;;5.70;1.50;;;19.60;99.90;;;;;;5077107;28;20622;-75
2022/06/21 07:25:02;;;;;;;2.43;1.40;;;19.80;99.90;;;;;;5077160;28;20577;-78
2022/06/21 07:27:32;;;;;;;4.60;1.60;;;20.10;98.10;;;;;;5073800;28;20980;-73
2022/06/21 07:30:04;;;;;;;3.13;1.60;;;20.30;97.10;;;;;;5077615;28;20215;-76
2022/06/21 07:32:37;;;;;;;4.03;1.60;;;20.80;98.30;;;;;;5083269;28;20687;-75
2022/06/21 07:35:09;;;;;;;4.03;1.80;;;21.90;95.70;;;;;;5078289;28;20243;-75
2022/06/21 07:37:45;;;;;;;4.67;1.43;;;22.80;93.90;;;;;;5082007;28;20207;-75
2022/06/21 07:40:19;;;;;;;3.97;1.50;;;23.60;91.40;;;;;;5075206;28;20207;-74
2022/06/21 07:42:55;;;;;;;4.47;1.50;;;24.80;92.70;;;;;;5079906;28;20202;-75
2022/06/21 07:45:32;;;;;;;3.73;1.80;;;25.80;85.30;;;;;;5076133;28;20591;-74
2022/06/21 07:48:07;;;;;;;3.78;1.58;;;26.30;80.20;;;;;;5075205;28;20223;-77
2022/06/21 07:50:39;;;;;;;2.47;1.38;;;25.80;81.30;;;;;;5075614;28;20242;-74
2022/06/21 07:53:13;;;;;;;6.82;1.48;;;25.70;81.80;;;;;;5068904;28;20231;-76
2022/06/21 07:55:44;;;;;;;3.00;1.50;;;26.40;77.00;;;;;;5072896;28;20208;-79
2022/06/21 07:58:19;;;;;;;3.97;1.80;;;26.40;78.00;;;;;;5073300;28;20614;-77
2022/06/21 08:06:42;;;;;;;5.18;1.70;;;25.70;76.70;;;;;;5074476;28;20309;-76
2022/06/21 08:09:21;;;;;;;6.55;1.92;;;24.70;78.80;;;;;;5078990;28;20199;-78
2022/06/21 08:11:53;;;;;;;5.70;1.77;;;24.10;80.90;;;;;;5079725;28;20207;-75
2022/06/21 08:14:22;;;;;;;6.63;1.90;;;24.10;81.80;;;;;;5078546;28;20246;-77
2022/06/21 08:16:57;;;;;;;6.07;1.70;;;23.40;82.40;;;;;;5079247;28;20245;-75
2022/06/21 08:19:33;;;;;;;5.97;1.77;;;23.30;84.70;;;;;;5079405;28;20265;-76
2022/06/21 08:22:07;;;;;;;3.80;1.70;;;23.20;83.90;;;;;;5075836;28;20203;-77
2022/06/21 08:24:41;;;;;;;4.50;1.90;;;23.60;84.20;;;;;;5080020;28;20256;-76
2022/06/21 08:27:19;;;;;;;4.73;1.80;;;24.40;84.40;;;;;;5080793;28;20313;-77
2022/06/21 08:29:56;;;;;;;2.70;1.63;;;25.30;83.40;;;;;;5070288;28;20612;-76
2022/06/21 08:32:32;;;;;;;3.47;1.60;;;26.40;83.40;;;;;;5076420;28;20249;-77
2022/06/21 08:35:05;;;;;;;5.97;1.90;;;27.80;79.10;;;;;;5075607;28;20661;-77
2022/06/21 08:37:42;;;;;;;3.65;1.90;;;28.20;74.30;;;;;;5081438;28;20258;-75
2022/06/21 08:40:45;;;;;;;3.33;1.60;;;27.70;78.30;;;;;;5078078;28;20265;-74
2022/06/21 08:43:41;;;;;;;5.40;1.90;;;27.60;73.10;;;;;;5057332;28;20242;-73
2022/06/21 08:46:44;;;;;;;5.57;1.90;;;26.50;76.40;;;;;;5077215;28;20265;-75
2022/06/21 08:49:58;;;;;;;4.90;2.33;;;25.40;78.50;;;;;;5062603;28;20293;-73
2022/06/21 08:52:53;;;;;;;5.65;2.17;;;25.50;79.40;;;;;;5026921;28;20246;-78
2022/06/21 08:55:34;;;;;;;5.07;2.10;;;25.90;79.00;;;;;;5076924;28;20234;-75
2022/06/21 08:58:20;;;;;;;3.40;1.83;;;24.90;78.00;;;;;;5071551;28;20233;-75
2022/06/21 09:00:54;;;;;;;3.70;1.90;;;24.40;83.00;;;;;;5082026;28;20203;-76
2022/06/21 09:03:42;;;;;;;6.07;1.83;;;24.10;82.90;;;;;;5081877;28;20224;-77
2022/06/21 09:06:17;;;;;;;3.47;1.90;;;24.60;85.50;;;;;;5081452;28;20684;-76
2022/06/21 09:09:19;;;;;;;3.90;1.80;;;25.50;84.00;;;;;;5077409;28;20207;-77
2022/06/21 09:11:58;;;;;;;4.28;1.98;;;25.90;81.90;;;;;;5077571;28;20214;-77
2022/06/21 09:14:59;;;;;;;5.88;1.88;;;25.80;79.80;;;;;;5078232;28;20269;-76
2022/06/21 09:17:35;;;;;;;3.47;1.92;;;26.10;78.90;;;;;;5077094;28;20241;-78
2022/06/21 09:20:14;;;;;;;6.15;2.10;;;26.30;81.40;;;;;;5074043;28;20279;-79
2022/06/21 09:23:04;;;;;;;2.92;1.60;;;25.80;83.20;;;;;;5075961;28;20207;-79
2022/06/21 09:25:43;;;;;;;4.60;1.80;;;26.00;85.30;;;;;;5081635;28;20199;-77
2022/06/21 09:28:29;;;;;;;4.43;2.08;;;26.70;77.10;;;;;;5077587;28;20240;-76
2022/06/21 09:31:01;;;;;;;3.55;2.00;;;26.80;76.60;;;;;;5077167;28;20239;-75
2022/06/21 09:33:41;;;;;;;4.55;1.95;;;26.40;80.60;;;;;;5076672;28;20234;-76
2022/06/21 09:36:19;;;;;;;4.93;2.20;;;26.40;83.60;;;;;;5075550;28;20278;-76
2022/06/21 09:38:58;;;;;;;3.35;1.80;;;26.70;76.10;;;;;;5074972;28;20208;-73
2022/06/21 09:41:34;;;;;;;3.60;1.60;;;26.70;78.60;;;;;;5074956;28;20286;-75
2022/06/21 09:44:09;;;;;;;4.07;2.10;;;27.60;79.20;;;;;;5086318;28;20210;-75
2022/06/21 09:46:48;;;;;;;3.53;2.17;;;27.90;81.40;;;;;;5084225;28;20215;-73
2022/06/21 09:49:30;;;;;;;3.97;2.10;;;28.20;74.30;;;;;;5077648;28;20281;-75
2022/06/21 09:52:05;;;;;;;2.35;1.33;;;28.60;77.70;;;;;;5079006;28;20208;-74
2022/06/21 09:54:36;;;;;;;3.65;1.98;;;29.20;72.40;;;;;;5078240;28;20289;-73
2022/06/21 09:57:15;;;;;;;10.82;2.60;;;29.70;74.00;;;;;;5078168;28;20238;-76
2022/06/21 09:59:54;;;;;;;2.70;1.75;;;29.90;74.70;;;;;;5076162;28;20215;-78
2022/06/21 10:02:31;;;;;;;4.18;1.83;;;30.00;73.50;;;;;;5077657;28;20257;-73
2022/06/21 10:05:08;;;;;;;4.38;2.08;;;30.10;74.00;;;;;;5076559;28;20223;-76
2022/06/21 10:07:51;;;;;;;3.38;2.00;;;29.00;76.20;;;;;;5072876;28;20301;-75
2022/06/21 10:10:35;;;;;;;4.80;2.42;;;28.40;77.10;;;;;;5073890;28;20235;-77
2022/06/21 10:13:14;;;;;;;4.28;2.05;;;26.90;78.50;;;;;;5075702;28;20621;-79
2022/06/21 10:15:54;;;;;;;7.32;2.10;;;26.60;80.00;;;;;;5073405;28;20261;-77
2022/06/21 10:18:56;;;;;;;4.57;2.30;;;26.90;82.20;;;;;;5072223;28;20230;-77
2022/06/21 10:21:52;;;;;;;3.20;2.08;;;27.60;79.90;;;;;;5082602;28;20237;-78
2022/06/21 10:24:48;;;;;;;4.57;2.08;;;28.80;80.40;;;;;;5078883;28;20246;-78
2022/06/21 10:27:41;;;;;;;3.72;2.00;;;29.10;76.60;;;;;;5061212;28;20265;-78
2022/06/21 10:30:36;;;;;;;4.30;2.50;;;28.50;79.50;;;;;;5073263;28;20235;-77
2022/06/21 10:33:26;;;;;;;5.05;2.13;;;27.50;79.70;;;;;;5073528;28;20261;-76
2022/06/21 10:36:18;;;;;;;3.13;2.28;;;26.90;84.30;;;;;;5073974;28;20294;-76
2022/06/21 10:39:06;;;;;;;5.75;2.50;;;26.60;83.30;;;;;;5080482;28;20327;-75
2022/06/21 10:42:46;;;;;;;3.63;2.20;;;26.60;86.70;;;;;;5078340;28;20302;-78
2022/06/21 10:44:52;;;;;;;3.63;2.20;;;26.10;87.50;;;;;;5076801;28;20298;-76
2022/06/21 10:47:31;;;;;;;5.57;2.47;;;26.20;85.30;;;;;;5080820;28;20246;-76
2022/06/21 10:50:17;;;;;;;4.80;2.15;;;26.60;86.10;;;;;;5075956;28;20238;-75
2022/06/21 10:53:41;;;;;;;4.75;2.28;;;27.50;89.00;;;;;;5078092;28;20207;-76
2022/06/21 10:59:24;;;;;;;4.57;2.38;;;28.40;84.00;;;;;;5073431;28;20200;-77
2022/06/21 11:02:05;;;;;;;4.03;2.40;;;28.40;80.00;;;;;;5070246;28;20265;-75
2022/06/21 11:04:53;;;;;;;4.22;2.50;;;28.10;81.50;;;;;;5073550;28;20251;-78
2022/06/21 11:07:30;;;;;;;5.70;2.70;;;27.30;84.40;;;;;;5068656;28;20759;-76
2022/06/21 11:10:02;;;;;;;4.43;2.60;;;27.10;84.00;;;;;;5072818;28;20221;-77
2022/06/21 11:15:30;;;;;;;5.60;2.33;;;25.70;85.30;;;;;;5080590;28;20211;-79
2022/06/21 11:18:16;;;;;;;4.17;2.57;;;26.00;88.60;;;;;;5080268;28;20234;-75
2022/06/21 11:20:55;;;;;;;4.37;2.33;;;26.60;85.70;;;;;;5076355;28;20234;-74
2022/06/21 11:23:34;;;;;;;3.35;2.50;;;27.70;87.80;;;;;;5082032;28;20249;-78
2022/06/21 11:26:11;;;;;;;4.95;2.30;;;27.60;86.20;;;;;;5082273;28;20258;-74
2022/06/21 11:29:10;;;;;;;4.43;2.33;;;27.10;86.10;;;;;;5082734;28;20598;-75
2022/06/21 11:31:47;;;;;;;7.13;2.72;;;27.30;89.20;;;;;;5074574;28;20231;-74
2022/06/21 11:34:26;;;;;;;5.28;2.50;;;27.30;85.50;;;;;;5080012;28;20214;-77
2022/06/21 11:37:03;;;;;;;3.75;2.50;;;27.10;85.50;;;;;;5078758;28;20203;-77
2022/06/21 11:39:37;;;;;;;5.93;2.60;;;26.50;85.80;;;;;;5077095;28;20673;-75
2022/06/21 11:42:14;;;;;;;4.10;2.30;;;26.30;86.30;;;;;;5077547;28;20219;-75
2022/06/21 11:45:08;;;;;;;5.77;2.20;;;26.30;85.30;;;;;;5068822;28;20215;-78
2022/06/21 11:47:49;;;;;;;4.03;2.20;;;26.10;85.90;;;;;;5078567;28;20224;-76
2022/06/21 11:50:21;;;;;;;4.20;2.50;;;26.10;90.30;;;;;;5073149;28;20239;-75
2022/06/21 11:53:28;;;;;;;8.30;2.73;;;26.20;87.50;;;;;;5074883;28;20749;-76
2022/06/21 11:56:04;;;;;;;4.53;2.30;;;26.40;89.80;;;;;;5061099;28;20230;-76
2022/06/21 11:58:39;;;;;;;4.07;2.30;;;26.20;88.00;;;;;;5073373;28;20203;-79
2022/06/21 12:01:14;;;;;;;4.13;2.17;;;26.70;88.30;;;;;;5077138;28;20206;-75
2022/06/21 12:03:59;;;;;;;6.83;2.13;;;26.50;85.70;;;;;;5078915;28;20261;-78
2022/06/21 12:06:36;;;;;;;3.73;2.13;;;26.60;85.90;;;;;;5072900;28;20213;-77
2022/06/21 12:09:15;;;;;;;3.93;2.40;;;26.40;86.00;;;;;;5076464;28;20227;-77
2022/06/21 12:12:07;;;;;;;3.50;2.20;;;26.60;84.60;;;;;;5082018;28;20203;-79
2022/06/21 12:14:48;;;;;;;7.40;2.30;;;26.30;89.00;;;;;;5081120;28;20206;-78
2022/06/21 12:17:20;;;;;;;3.87;2.23;;;26.50;87.10;;;;;;5077570;28;20260;-79
2022/06/21 12:19:53;;;;;;;5.13;2.50;;;26.40;85.00;;;;;;5082688;28;20195;-78
2022/06/21 12:22:31;;;;;;;4.07;2.30;;;26.50;85.70;;;;;;5078255;28;20235;-78
2022/06/21 12:25:00;;;;;;;4.80;2.10;;;26.00;86.80;;;;;;5080538;28;20555;-78
2022/06/21 12:27:30;;;;;;;3.77;2.07;;;26.20;87.20;;;;;;5083430;28;20207;-78
2022/06/21 12:30:04;;;;;;;3.17;2.00;;;26.00;88.40;;;;;;5078901;28;20211;-76
2022/06/21 12:32:33;;;;;;;3.17;2.10;;;26.40;89.00;;;;;;5081188;28;20268;-79
2022/06/21 12:35:07;;;;;;;3.17;2.07;;;26.70;87.60;;;;;;5079338;28;20630;-78
2022/06/21 12:37:41;;;;;;;4.30;2.00;;;26.30;89.80;;;;;;5078961;28;20722;-78
2022/06/21 12:40:22;;;;;;;3.20;2.10;;;26.20;85.90;;;;;;5076752;28;20211;-75
2022/06/21 12:43:06;;;;;;;4.47;2.40;;;26.20;88.20;;;;;;5071010;28;20216;-77
2022/06/21 12:45:46;;;;;;;4.43;2.40;;;26.20;87.90;;;;;;5076879;28;20208;-78
2022/06/21 12:48:31;;;;;;;4.10;2.10;;;26.20;86.20;;;;;;5074840;28;20231;-77
2022/06/21 12:51:10;;;;;;;4.00;2.20;;;25.90;88.00;;;;;;5086364;28;20198;-76
2022/06/21 12:54:08;;;;;;;3.37;2.10;;;25.90;85.90;;;;;;5080769;28;20229;-78
2022/06/21 12:56:52;;;;;;;5.73;2.20;;;25.60;86.20;;;;;;5077655;28;20211;-76
2022/06/21 12:59:40;;;;;;;4.00;2.30;;;25.30;88.10;;;;;;5065598;28;20207;-76
2022/06/21 13:02:38;;;;;;;5.67;2.20;;;25.40;89.70;;;;;;5079470;28;20638;-78
2022/06/21 13:05:28;;;;;;;5.80;2.20;;;25.60;89.20;;;;;;5008281;28;20236;-78
2022/06/21 13:08:51;;;;;;;3.93;2.00;;;25.80;85.30;;;;;;5077557;28;20234;-78
2022/06/21 13:11:30;;;;;;;5.23;2.00;;;26.00;87.60;;;;;;5079000;28;20238;-78
2022/06/21 13:14:29;;;;;;;6.93;2.60;;;26.80;90.30;;;;;;5076823;28;20211;-78
2022/06/21 13:17:17;;;;;;;4.73;2.30;;;26.60;85.60;;;;;;5070279;28;20257;-77
2022/06/21 13:20:01;;;;;;;3.73;2.30;;;26.80;90.00;;;;;;5075421;28;20199;-77
2022/06/21 13:22:53;;;;;;;4.40;2.07;;;27.00;89.00;;;;;;5073704;28;20239;-75
2022/06/21 13:25:50;;;;;;;2.60;1.97;;;27.20;87.20;;;;;;5082111;28;20222;-78
2022/06/21 13:28:32;;;;;;;4.07;2.10;;;27.10;85.00;;;;;;5075241;28;20254;-75
2022/06/21 13:31:06;;;;;;;7.37;2.50;;;26.90;84.30;;;;;;5069235;28;20196;-78
2022/06/21 13:33:53;;;;;;;4.30;2.17;;;27.00;83.50;;;;;;5077945;28;20278;-78
2022/06/21 13:36:28;;;;;;;5.00;2.27;;;26.70;85.10;;;;;;5074345;28;20303;-75
2022/06/21 13:39:01;;;;;;;4.43;1.90;;;26.30;85.00;;;;;;5077671;28;20256;-76
2022/06/21 13:44:28;;;;;;;3.47;2.50;;;26.70;85.00;;;;;;5051379;28;20289;-77
2022/06/21 13:47:03;;;;;;;4.37;2.27;;;26.70;83.40;;;;;;5079708;28;20204;-77
2022/06/21 13:49:36;;;;;;;5.13;2.40;;;26.40;85.80;;;;;;5073862;28;20261;-80
2022/06/21 13:52:11;;;;;;;3.80;2.10;;;26.20;86.30;;;;;;5078558;28;20276;-77
2022/06/21 13:54:49;;;;;;;5.97;2.47;;;26.20;89.60;;;;;;5074859;28;20253;-76